Time;durP1;ratioP1;P1;durP2;ratioP2;P2;SDS_P1;SDS_P2;PMS_P1;PMS_P2;Temp;Humidity;BMP_temperature;BMP_pressure;BME280_temperature;BME280_humidity;BME280_pressure;Samples;Min_cycle;Max_cycle;Signal;HPM_P1;HPM_P2
2022/04/26 03:37:45;;;;;;;2.10;0.80;;;9.00;99.90;;;;;;4998166;28;20278;-82
2022/04/26 03:40:10;;;;;;;0.67;0.67;;;9.00;99.90;;;;;;5003910;28;20579;-81
2022/04/26 03:42:36;;;;;;;1.03;0.60;;;9.00;99.90;;;;;;5004123;28;20183;-81
2022/04/26 03:45:02;;;;;;;0.40;0.40;;;9.00;99.90;;;;;;4997408;28;20185;-81
2022/04/26 03:47:28;;;;;;;0.50;0.20;;;9.10;99.90;;;;;;5002815;28;20777;-82
2022/04/26 03:49:53;;;;;;;0.33;0.33;;;9.00;99.90;;;;;;5013055;28;20209;-82
2022/04/26 03:52:20;;;;;;;0.40;0.40;;;8.90;99.90;;;;;;5003450;28;20281;-82
2022/04/26 03:54:45;;;;;;;0.87;0.87;;;9.00;99.90;;;;;;4998211;28;20360;-82
2022/04/26 03:57:11;;;;;;;0.60;0.40;;;9.00;99.90;;;;;;5004213;28;20668;-82
2022/04/26 03:59:36;;;;;;;0.40;0.40;;;8.90;99.90;;;;;;5013465;28;20215;-82
2022/04/26 04:02:02;;;;;;;1.30;0.80;;;8.80;99.90;;;;;;5003896;28;20178;-82
2022/04/26 04:04:28;;;;;;;0.63;0.57;;;8.50;99.90;;;;;;5002633;28;20240;-83
2022/04/26 04:06:53;;;;;;;0.57;0.57;;;8.20;99.90;;;;;;5012281;28;20344;-81
2022/04/26 04:09:19;;;;;;;0.50;0.50;;;8.20;99.90;;;;;;5013746;28;20235;-82
2022/04/26 04:11:44;;;;;;;0.50;0.50;;;8.10;99.90;;;;;;5010640;28;20194;-82
2022/04/26 04:14:10;;;;;;;0.17;0.17;;;8.00;99.90;;;;;;5004066;28;20663;-81
2022/04/26 04:16:35;;;;;;;0.33;0.33;;;7.90;99.90;;;;;;5001396;28;20195;-82
2022/04/26 04:19:20;;;;;;;0.10;0.10;;;7.90;99.90;;;;;;5015317;28;20241;-81
2022/04/26 04:21:47;;;;;;;0.70;0.47;;;7.70;99.90;;;;;;5000380;28;20288;-82
2022/04/26 04:24:14;;;;;;;0.37;0.37;;;7.70;99.90;;;;;;4999223;28;20421;-82
2022/04/26 04:26:40;;;;;;;0.23;0.23;;;7.60;99.90;;;;;;5007285;28;20192;-81
2022/04/26 04:29:05;;;;;;;0.23;0.23;;;7.60;99.90;;;;;;5000889;28;20595;-81
2022/04/26 04:31:32;;;;;;;1.00;0.90;;;7.60;99.90;;;;;;4999216;28;20192;-82
2022/04/26 04:33:57;;;;;;;0.20;0.20;;;7.60;99.90;;;;;;4998967;28;20319;-81
2022/04/26 04:36:23;;;;;;;0.30;0.30;;;7.60;99.90;;;;;;5005955;28;20287;-81
2022/04/26 04:38:48;;;;;;;0.30;0.30;;;7.60;99.90;;;;;;5006293;28;20209;-81
2022/04/26 04:41:14;;;;;;;0.23;0.23;;;7.60;99.90;;;;;;5015176;28;20211;-81
2022/04/26 04:43:40;;;;;;;0.37;0.37;;;7.60;99.90;;;;;;5014392;28;20199;-82
2022/04/26 04:46:06;;;;;;;0.10;0.10;;;7.60;99.90;;;;;;5016084;28;20187;-81
2022/04/26 04:48:31;;;;;;;0.10;0.10;;;7.60;99.90;;;;;;5017781;28;20197;-81
2022/04/26 04:50:57;;;;;;;0.20;0.20;;;7.70;99.90;;;;;;5007394;28;20209;-81
2022/04/26 04:53:22;;;;;;;0.27;0.27;;;7.70;99.90;;;;;;4999439;28;20201;-82
2022/04/26 04:55:48;;;;;;;0.10;0.10;;;7.80;99.90;;;;;;5001749;28;20196;-81
2022/04/26 04:58:14;;;;;;;0.20;0.20;;;7.90;99.90;;;;;;4998994;28;20625;-81
2022/04/26 05:00:40;;;;;;;0.33;0.33;;;8.00;99.90;;;;;;4999305;28;20205;-80
2022/04/26 05:03:06;;;;;;;0.30;0.30;;;8.00;99.90;;;;;;5004473;28;20183;-81
2022/04/26 05:05:31;;;;;;;0.20;0.20;;;8.00;99.90;;;;;;4999056;28;20236;-81
2022/04/26 05:07:58;;;;;;;0.73;0.37;;;8.00;99.90;;;;;;5004788;28;20735;-81
2022/04/26 05:10:24;;;;;;;0.60;0.60;;;8.00;99.90;;;;;;5014807;28;20211;-81
2022/04/26 05:12:49;;;;;;;1.93;0.30;;;8.00;99.90;;;;;;5005579;28;20185;-81
2022/04/26 05:15:15;;;;;;;0.10;0.10;;;8.00;99.90;;;;;;5015812;28;20206;-80
2022/04/26 05:17:41;;;;;;;0.47;0.47;;;8.00;99.90;;;;;;5005169;28;20708;-81
2022/04/26 05:20:08;;;;;;;0.40;0.40;;;8.00;99.90;;;;;;5004604;28;20227;-80
2022/04/26 05:24:53;;;;;;;0.10;0.10;;;8.00;99.90;;;;;;5004465;28;20194;-81
2022/04/26 05:25:20;;;;;;;0.20;0.20;;;8.00;99.90;;;;;;4999208;28;20235;-80
2022/04/26 05:27:45;;;;;;;0.10;0.10;;;8.10;99.90;;;;;;4999753;28;20639;-81
2022/04/26 05:30:12;;;;;;;0.20;0.20;;;8.20;99.90;;;;;;5001175;28;20655;-81
2022/04/26 05:32:38;;;;;;;0.60;0.60;;;8.20;99.90;;;;;;4998132;28;20189;-81
2022/04/26 05:35:06;;;;;;;0.20;0.20;;;8.20;99.90;;;;;;5014938;28;20190;-81
2022/04/26 05:37:32;;;;;;;0.30;0.30;;;8.20;99.90;;;;;;4998217;28;20211;-81
2022/04/26 05:40:02;;;;;;;0.53;0.50;;;8.30;99.90;;;;;;4998557;28;20243;-81
2022/04/26 05:42:30;;;;;;;0.10;0.10;;;8.50;99.90;;;;;;5005994;28;20181;-81
2022/04/26 05:44:57;;;;;;;0.10;0.10;;;8.70;99.90;;;;;;4997397;28;20183;-80
2022/04/26 05:47:23;;;;;;;0.77;0.20;;;8.90;99.90;;;;;;5003162;28;20174;-81
2022/04/26 05:49:48;;;;;;;0.13;0.13;;;9.20;99.90;;;;;;4998799;28;20260;-80
2022/04/26 05:52:14;;;;;;;0.10;0.10;;;9.30;99.90;;;;;;4996807;28;20858;-81
2022/04/26 05:54:40;;;;;;;0.20;0.20;;;9.40;99.90;;;;;;5005408;28;20290;-81
2022/04/26 05:57:05;;;;;;;0.10;0.10;;;9.40;99.90;;;;;;4997515;28;20597;-81
2022/04/26 05:59:31;;;;;;;0.10;0.10;;;9.60;99.90;;;;;;5013368;28;20252;-81
2022/04/26 06:01:57;;;;;;;0.10;0.10;;;9.30;99.90;;;;;;5001481;28;20586;-81
2022/04/26 06:04:24;;;;;;;0.10;0.10;;;9.10;99.90;;;;;;4997293;28;20194;-81
2022/04/26 06:06:50;;;;;;;1.23;0.10;;;9.20;99.90;;;;;;5013951;28;20201;-81
2022/04/26 06:09:16;;;;;;;0.20;0.20;;;9.20;99.90;;;;;;5004044;28;20184;-81
2022/04/26 06:11:42;;;;;;;0.23;0.23;;;9.10;99.90;;;;;;5014364;28;20216;-81
2022/04/26 06:14:08;;;;;;;0.17;0.17;;;9.40;99.90;;;;;;4999305;28;20194;-81
2022/04/26 06:16:33;;;;;;;0.20;0.20;;;9.50;99.90;;;;;;4996373;28;20191;-81
2022/04/26 06:18:59;;;;;;;0.37;0.37;;;9.60;99.90;;;;;;4997382;28;20222;-81
2022/04/26 06:21:24;;;;;;;0.10;0.10;;;9.70;99.90;;;;;;5004183;28;20676;-81
2022/04/26 06:23:50;;;;;;;1.17;0.43;;;9.70;99.90;;;;;;4998262;28;20187;-81
2022/04/26 06:26:15;;;;;;;0.47;0.47;;;9.60;99.90;;;;;;5004518;28;20175;-81
2022/04/26 06:28:41;;;;;;;0.20;0.20;;;9.50;99.90;;;;;;4997772;28;20186;-81
2022/04/26 06:31:07;;;;;;;0.27;0.20;;;9.40;99.90;;;;;;4998404;28;20199;-81
2022/04/26 06:33:35;;;;;;;0.20;0.20;;;9.40;99.90;;;;;;5005926;28;20190;-81
2022/04/26 06:36:01;;;;;;;0.40;0.40;;;9.50;99.90;;;;;;5004443;28;20195;-82
2022/04/26 06:38:26;;;;;;;0.40;0.20;;;9.50;99.90;;;;;;5003465;28;20209;-81
2022/04/26 06:40:53;;;;;;;0.40;0.40;;;9.70;99.90;;;;;;4999078;28;20210;-81
2022/04/26 06:43:19;;;;;;;0.30;0.20;;;9.90;99.90;;;;;;5012335;28;20212;-81
2022/04/26 06:45:46;;;;;;;0.30;0.30;;;10.00;99.90;;;;;;4996351;28;20249;-81
2022/04/26 06:48:13;;;;;;;0.67;0.40;;;10.10;99.90;;;;;;4998894;28;20704;-81
2022/04/26 06:50:39;;;;;;;0.47;0.47;;;10.20;99.90;;;;;;5012484;28;21029;-81
2022/04/26 06:53:05;;;;;;;0.30;0.30;;;10.40;99.90;;;;;;4997484;28;20645;-80
2022/04/26 06:55:31;;;;;;;0.37;0.37;;;10.40;99.90;;;;;;4998251;28;20184;-80
2022/04/26 06:57:57;;;;;;;0.37;0.37;;;10.50;99.90;;;;;;5003658;28;20226;-80
2022/04/26 07:00:22;;;;;;;0.77;0.43;;;10.40;99.90;;;;;;5004324;28;20275;-80
2022/04/26 07:02:48;;;;;;;0.20;0.20;;;10.40;99.90;;;;;;5003447;28;20298;-81
2022/04/26 07:05:15;;;;;;;0.77;0.40;;;10.40;99.90;;;;;;5012019;28;20194;-81
2022/04/26 07:07:41;;;;;;;2.50;0.53;;;10.30;99.90;;;;;;5012574;28;20592;-80
2022/04/26 07:10:08;;;;;;;0.57;0.57;;;10.40;99.90;;;;;;5004145;28;20234;-79
2022/04/26 07:12:34;;;;;;;0.20;0.20;;;10.20;99.90;;;;;;5003202;28;20191;-80
2022/04/26 07:14:59;;;;;;;0.53;0.53;;;10.30;99.90;;;;;;4997567;28;20198;-79
2022/04/26 07:17:25;;;;;;;0.20;0.13;;;10.40;99.90;;;;;;4997973;28;20234;-80
2022/04/26 07:19:51;;;;;;;0.60;0.37;;;10.50;99.90;;;;;;4998588;28;20241;-80
2022/04/26 07:22:17;;;;;;;0.60;0.60;;;10.40;99.90;;;;;;4997714;28;20213;-80
2022/04/26 07:24:43;;;;;;;0.40;0.40;;;10.30;99.90;;;;;;5012856;28;20217;-80
2022/04/26 07:27:10;;;;;;;0.20;0.20;;;10.40;99.90;;;;;;5004147;28;20183;-79
2022/04/26 07:29:36;;;;;;;0.40;0.40;;;10.40;99.90;;;;;;4996748;28;20262;-78
2022/04/26 07:32:02;;;;;;;0.67;0.23;;;10.20;99.90;;;;;;4995561;28;20195;-78
2022/04/26 07:34:29;;;;;;;0.40;0.40;;;10.30;99.90;;;;;;5002240;28;20189;-78
2022/04/26 07:36:59;;;;;;;0.57;0.53;;;10.40;99.90;;;;;;4996944;28;20277;-78
2022/04/26 07:39:28;;;;;;;0.83;0.43;;;10.40;99.90;;;;;;4997177;28;21163;-78
2022/04/26 07:41:54;;;;;;;0.40;0.40;;;10.40;99.90;;;;;;5003164;28;20237;-78
2022/04/26 07:44:20;;;;;;;0.30;0.30;;;10.30;99.90;;;;;;5001423;28;20665;-78
2022/04/26 07:46:47;;;;;;;0.10;0.10;;;10.50;99.90;;;;;;4996526;28;20180;-78
2022/04/26 07:49:15;;;;;;;0.20;0.20;;;10.50;99.90;;;;;;4999708;28;20408;-79
2022/04/26 07:51:41;;;;;;;0.17;0.17;;;10.50;99.90;;;;;;5001921;28;20205;-81
2022/04/26 07:54:08;;;;;;;0.10;0.10;;;10.70;99.90;;;;;;5008647;28;20195;-81
2022/04/26 07:56:34;;;;;;;0.27;0.27;;;10.70;99.90;;;;;;5004239;28;20328;-80
2022/04/26 07:59:01;;;;;;;0.20;0.20;;;10.70;99.90;;;;;;5017604;28;20214;-79
2022/04/26 08:01:28;;;;;;;0.57;0.57;;;10.80;99.90;;;;;;5005434;28;20699;-79
2022/04/26 08:03:54;;;;;;;0.27;0.20;;;10.80;99.90;;;;;;5000439;28;20191;-79
2022/04/26 08:06:20;;;;;;;0.33;0.33;;;10.50;99.90;;;;;;5014798;28;20241;-79
2022/04/26 08:08:45;;;;;;;1.63;0.30;;;10.40;99.90;;;;;;5000027;28;20198;-79
2022/04/26 08:11:13;;;;;;;0.33;0.33;;;10.10;99.90;;;;;;5014317;28;20199;-79
2022/04/26 08:13:40;;;;;;;0.20;0.20;;;10.00;99.90;;;;;;4998225;28;20315;-79
2022/04/26 08:16:09;;;;;;;0.27;0.27;;;9.80;99.90;;;;;;4998271;28;20180;-79
2022/04/26 08:18:35;;;;;;;0.30;0.30;;;9.70;99.90;;;;;;5001891;28;20203;-82
2022/04/26 08:21:01;;;;;;;0.30;0.30;;;9.70;99.90;;;;;;5001945;28;20226;-82
2022/04/26 08:23:27;;;;;;;0.27;0.27;;;9.50;99.90;;;;;;5007835;28;20754;-82
2022/04/26 08:28:36;;;;;;;0.13;0.13;;;9.30;99.90;;;;;;5002511;28;20729;-82
2022/04/26 08:31:04;;;;;;;0.10;0.10;;;9.20;99.90;;;;;;5016841;28;20211;-82
2022/04/26 08:33:31;;;;;;;0.10;0.10;;;9.10;99.90;;;;;;5001091;28;20187;-83
2022/04/26 08:35:57;;;;;;;0.23;0.23;;;9.10;99.90;;;;;;5006689;28;20189;-82
2022/04/26 08:38:22;;;;;;;0.20;0.20;;;9.20;99.90;;;;;;5006770;28;20185;-82
2022/04/26 08:40:48;;;;;;;0.10;0.10;;;9.10;99.90;;;;;;5001479;28;20225;-83
2022/04/26 08:43:14;;;;;;;0.10;0.10;;;9.10;99.90;;;;;;4999786;28;20199;-83
2022/04/26 08:45:40;;;;;;;0.10;0.10;;;9.10;99.90;;;;;;5000349;28;20610;-82
2022/04/26 08:51:04;;;;;;;0.20;0.20;;;9.30;99.90;;;;;;5002288;28;20236;-82
2022/04/26 08:53:32;;;;;;;0.10;0.10;;;9.40;99.90;;;;;;5006974;28;20185;-82
2022/04/26 08:56:01;;;;;;;0.10;0.10;;;9.50;99.90;;;;;;4998549;28;20205;-82
2022/04/26 08:58:31;;;;;;;0.13;0.13;;;9.80;99.90;;;;;;4999020;28;20244;-82
2022/04/26 09:01:16;;;;;;;0.23;0.23;;;10.10;99.90;;;;;;5005406;28;20211;-83
2022/04/26 09:03:54;;;;;;;0.20;0.20;;;9.90;99.90;;;;;;4998211;28;20187;-82
2022/04/26 09:06:21;;;;;;;0.30;0.30;;;9.80;99.90;;;;;;5000725;28;20186;-83
2022/04/26 09:08:48;;;;;;;0.20;0.20;;;9.90;99.90;;;;;;5001542;28;20210;-83
2022/04/26 09:11:27;;;;;;;0.33;0.33;;;9.50;99.90;;;;;;5000682;28;20221;-83
2022/04/26 09:13:55;;;;;;;0.37;0.37;;;9.30;99.90;;;;;;4999347;28;20240;-82
2022/04/26 09:16:22;;;;;;;0.93;0.20;;;9.20;99.90;;;;;;5007032;28;20196;-83
2022/04/26 09:19:06;;;;;;;0.50;0.30;;;9.80;99.90;;;;;;5007570;28;20684;-82
2022/04/26 09:21:36;;;;;;;0.20;0.20;;;9.60;99.90;;;;;;5001176;28;20189;-81
2022/04/26 09:24:06;;;;;;;0.20;0.20;;;10.00;99.90;;;;;;4999752;28;20177;-81
2022/04/26 09:26:39;;;;;;;0.10;0.10;;;9.90;99.90;;;;;;5004829;28;20182;-82
2022/04/26 09:29:07;;;;;;;0.10;0.10;;;9.80;99.90;;;;;;4999486;28;20186;-83
2022/04/26 09:31:38;;;;;;;0.20;0.17;;;10.80;99.90;;;;;;4998904;28;20196;-82
2022/04/26 09:34:14;;;;;;;0.10;0.10;;;12.10;99.90;;;;;;4998923;28;20187;-81
2022/04/26 09:37:04;;;;;;;0.10;0.10;;;12.10;99.90;;;;;;4999716;28;20193;-81
2022/04/26 09:39:30;;;;;;;0.10;0.10;;;12.10;99.90;;;;;;5014852;28;20199;-82
2022/04/26 09:41:55;;;;;;;0.10;0.10;;;12.20;99.90;;;;;;5005973;28;20191;-83
2022/04/26 09:44:35;;;;;;;0.10;0.10;;;12.30;99.90;;;;;;4998934;28;20184;-82
2022/04/26 09:47:02;;;;;;;0.23;0.23;;;12.60;99.90;;;;;;4999978;28;20176;-82
2022/04/26 09:49:36;;;;;;;0.40;0.40;;;12.80;99.90;;;;;;4998786;28;20292;-83
2022/04/26 09:52:04;;;;;;;0.30;0.30;;;12.90;99.90;;;;;;5013479;28;20230;-83
2022/04/26 09:54:29;;;;;;;0.10;0.10;;;13.20;99.90;;;;;;5004800;28;20189;-82
2022/04/26 09:56:55;;;;;;;0.63;0.20;;;13.50;99.90;;;;;;5005502;28;20182;-83
2022/04/26 09:59:36;;;;;;;0.10;0.10;;;13.80;99.90;;;;;;5004990;28;20221;-81
2022/04/26 10:02:03;;;;;;;0.33;0.30;;;14.10;99.90;;;;;;5012146;28;20240;-81
2022/04/26 10:04:31;;;;;;;0.10;0.10;;;14.20;99.90;;;;;;4997122;28;20281;-81
2022/04/26 10:07:05;;;;;;;0.10;0.10;;;14.50;99.90;;;;;;5000506;28;20270;-81
2022/04/26 10:09:32;;;;;;;0.50;0.40;;;14.30;99.90;;;;;;4996747;28;21185;-84
2022/04/26 10:12:00;;;;;;;0.17;0.17;;;14.00;99.90;;;;;;5004142;28;20191;-82
2022/04/26 10:14:29;;;;;;;0.20;0.20;;;13.80;99.90;;;;;;5004250;28;20194;-81
2022/04/26 10:16:55;;;;;;;0.10;0.10;;;14.00;99.90;;;;;;4998312;28;20196;-83
2022/04/26 10:19:42;;;;;;;0.20;0.20;;;13.90;99.90;;;;;;4997599;28;20215;-82
2022/04/26 10:22:10;;;;;;;0.10;0.10;;;13.90;99.90;;;;;;5003571;28;20264;-82
2022/04/26 10:24:36;;;;;;;0.10;0.10;;;13.50;99.90;;;;;;4999711;28;20184;-83
2022/04/26 10:27:25;;;;;;;0.20;0.20;;;13.30;99.90;;;;;;5004908;28;20195;-82
2022/04/26 10:29:51;;;;;;;0.10;0.10;;;13.30;99.90;;;;;;5004412;28;20299;-82
2022/04/26 10:32:38;;;;;;;0.40;0.20;;;13.10;99.90;;;;;;4997135;28;20194;-82
2022/04/26 10:35:23;;;;;;;0.10;0.10;;;13.20;99.90;;;;;;5012891;28;20568;-83
2022/04/26 10:38:09;;;;;;;0.23;0.23;;;13.00;99.90;;;;;;4999696;28;20185;-82
2022/04/26 10:41:07;;;;;;;0.20;0.20;;;13.00;99.90;;;;;;5012174;28;20215;-83
2022/04/26 10:43:32;;;;;;;0.93;0.27;;;13.10;99.90;;;;;;5011732;28;20207;-81
2022/04/26 10:46:15;;;;;;;0.10;0.10;;;13.30;99.90;;;;;;5010089;28;20225;-84
2022/04/26 10:48:42;;;;;;;0.20;0.20;;;13.30;99.90;;;;;;5001838;28;20660;-82
2022/04/26 10:51:37;;;;;;;0.10;0.10;;;13.00;99.90;;;;;;4998004;28;21515;-83
2022/04/26 10:54:03;;;;;;;0.20;0.20;;;13.10;99.90;;;;;;4988717;28;20289;-81
2022/04/26 10:56:30;;;;;;;0.20;0.20;;;13.20;99.90;;;;;;5013566;28;20266;-82
2022/04/26 10:58:55;;;;;;;0.30;0.30;;;13.10;99.90;;;;;;5010108;28;20222;-84
2022/04/26 11:01:28;;;;;;;0.13;0.13;;;13.30;99.90;;;;;;5004491;28;20201;-80
2022/04/26 11:03:55;;;;;;;0.10;0.10;;;13.40;99.90;;;;;;5015752;28;20197;-84
2022/04/26 11:06:35;;;;;;;0.27;0.27;;;13.30;99.90;;;;;;5006962;28;20183;-80
2022/04/26 11:09:13;;;;;;;0.20;0.20;;;13.10;99.90;;;;;;5016908;28;20611;-82
2022/04/26 11:11:55;;;;;;;0.10;0.10;;;13.50;99.90;;;;;;5010623;28;20207;-82
2022/04/26 11:14:21;;;;;;;0.20;0.20;;;13.40;99.90;;;;;;4998336;28;20191;-83
2022/04/26 11:16:58;;;;;;;0.10;0.10;;;13.50;99.90;;;;;;5002380;28;20209;-82
2022/04/26 11:19:31;;;;;;;0.10;0.10;;;13.40;99.90;;;;;;5007076;28;20214;-82
2022/04/26 11:22:04;;;;;;;0.10;0.10;;;13.70;99.90;;;;;;4994543;28;20183;-81
2022/04/26 11:29:59;;;;;;;0.50;0.50;;;13.70;99.90;;;;;;5007190;28;20599;-80
2022/04/26 11:32:38;;;;;;;0.40;0.40;;;13.50;99.90;;;;;;5012600;28;20193;-83
2022/04/26 11:35:04;;;;;;;0.20;0.20;;;13.40;99.90;;;;;;5006174;28;20182;-84
2022/04/26 11:37:30;;;;;;;0.30;0.30;;;13.60;99.90;;;;;;5011171;28;20196;-81
2022/04/26 11:39:56;;;;;;;0.77;0.63;;;13.60;99.90;;;;;;5020660;28;20210;-81
2022/04/26 11:42:21;;;;;;;0.40;0.40;;;13.70;99.90;;;;;;5016341;28;21038;-84
2022/04/26 11:44:57;;;;;;;0.20;0.20;;;13.70;99.90;;;;;;5011718;28;20179;-83
2022/04/26 11:47:40;;;;;;;0.10;0.10;;;13.60;99.90;;;;;;5013013;28;20189;-81
2022/04/26 11:50:11;;;;;;;0.17;0.17;;;13.60;99.90;;;;;;5013894;28;21273;-82
2022/04/26 11:52:36;;;;;;;0.10;0.10;;;13.30;99.90;;;;;;5028271;28;20198;-80
2022/04/26 11:55:02;;;;;;;0.00;0.00;;;13.40;99.90;;;;;;5011883;28;20245;-83
2022/04/26 11:57:28;;;;;;;0.10;0.10;;;13.40;99.90;;;;;;5014248;28;20262;-80
2022/04/26 11:59:55;;;;;;;0.30;0.30;;;13.40;99.90;;;;;;5011816;28;20770;-84
2022/04/26 12:02:21;;;;;;;0.10;0.10;;;13.40;99.90;;;;;;5011556;28;20250;-84
2022/04/26 12:04:48;;;;;;;0.20;0.20;;;13.10;99.90;;;;;;5009542;28;20189;-82
2022/04/26 12:07:15;;;;;;;0.33;0.33;;;13.10;99.90;;;;;;5011207;28;20195;-83
2022/04/26 12:09:45;;;;;;;0.10;0.10;;;13.10;99.90;;;;;;5027273;28;21018;-84
2022/04/26 12:12:13;;;;;;;0.40;0.27;;;13.10;99.90;;;;;;5007451;28;20195;-81
2022/04/26 12:14:43;;;;;;;0.10;0.10;;;13.20;99.90;;;;;;5006210;28;20686;-81
2022/04/26 12:17:19;;;;;;;0.10;0.10;;;13.30;99.90;;;;;;5014794;28;20197;-81
2022/04/26 12:19:50;;;;;;;0.17;0.17;;;13.10;99.90;;;;;;5009694;28;20238;-82
2022/04/26 12:22:17;;;;;;;0.30;0.30;;;12.90;99.90;;;;;;5007451;28;20178;-84
2022/04/26 12:24:53;;;;;;;0.47;0.47;;;12.80;99.90;;;;;;5010728;28;20193;-82
2022/04/26 12:27:26;;;;;;;0.10;0.10;;;12.80;99.90;;;;;;5014407;28;20256;-82
2022/04/26 12:29:52;;;;;;;0.20;0.20;;;12.40;99.90;;;;;;5013857;28;20230;-80
2022/04/26 12:32:19;;;;;;;0.23;0.20;;;12.40;99.90;;;;;;5018980;28;20207;-81
2022/04/26 12:34:56;;;;;;;0.20;0.20;;;11.60;99.90;;;;;;5008199;28;20190;-82
2022/04/26 12:37:27;;;;;;;0.33;0.33;;;11.30;99.90;;;;;;5027726;28;20184;-81
2022/04/26 12:39:58;;;;;;;0.13;0.13;;;10.60;99.90;;;;;;5011529;28;20207;-82
2022/04/26 12:42:28;;;;;;;0.10;0.10;;;10.00;99.90;;;;;;5017413;28;20213;-83
2022/04/26 12:45:08;;;;;;;0.20;0.20;;;9.90;99.90;;;;;;5012315;28;22314;-84
2022/04/26 12:50:33;;;;;;;0.07;0.07;;;9.20;99.90;;;;;;5006260;28;20954;-81
2022/04/26 12:53:07;;;;;;;0.10;0.10;;;9.30;99.90;;;;;;5019156;28;20195;-81
2022/04/26 12:55:34;;;;;;;0.10;0.10;;;9.40;99.90;;;;;;5005108;28;20673;-82
2022/04/26 12:58:11;;;;;;;0.10;0.10;;;9.30;99.90;;;;;;5002289;28;20194;-84
2022/04/26 13:00:43;;;;;;;0.03;0.03;;;9.60;99.90;;;;;;5003766;28;20260;-80
2022/04/26 13:03:11;;;;;;;0.10;0.10;;;9.20;99.90;;;;;;5017023;28;20186;-82
2022/04/26 13:05:44;;;;;;;0.10;0.10;;;9.60;99.90;;;;;;5016750;28;21091;-84
2022/04/26 13:08:11;;;;;;;0.10;0.10;;;9.70;99.90;;;;;;5000712;28;20198;-82
2022/04/26 13:10:36;;;;;;;0.10;0.10;;;9.60;99.90;;;;;;5009249;28;20210;-82
2022/04/26 13:13:03;;;;;;;0.10;0.10;;;9.50;99.90;;;;;;5008500;28;20539;-80
2022/04/26 13:15:28;;;;;;;0.30;0.30;;;9.50;99.90;;;;;;5000166;28;20193;-81
2022/04/26 13:17:54;;;;;;;0.43;0.43;;;9.50;99.90;;;;;;5003566;28;20193;-81
2022/04/26 13:20:20;;;;;;;0.30;0.30;;;9.50;99.90;;;;;;5009667;28;20779;-81
2022/04/26 13:22:46;;;;;;;0.53;0.47;;;9.50;99.90;;;;;;5002950;28;20203;-82
2022/04/26 13:25:11;;;;;;;0.30;0.30;;;9.60;99.90;;;;;;4998288;28;20195;-81
2022/04/26 13:27:38;;;;;;;0.30;0.30;;;9.60;99.90;;;;;;4999438;28;20197;-82
2022/04/26 13:30:05;;;;;;;0.30;0.27;;;9.80;99.90;;;;;;5017698;28;20311;-81
2022/04/26 13:32:31;;;;;;;0.30;0.30;;;9.80;99.90;;;;;;5012021;28;20279;-81
2022/04/26 13:34:58;;;;;;;0.20;0.20;;;9.90;99.90;;;;;;5015829;28;20206;-82
2022/04/26 13:37:24;;;;;;;0.50;0.50;;;10.00;99.90;;;;;;5002207;28;20438;-81
2022/04/26 13:39:50;;;;;;;0.17;0.17;;;10.20;99.90;;;;;;5001439;28;20312;-82
2022/04/26 13:42:19;;;;;;;0.20;0.20;;;10.20;99.90;;;;;;5006274;28;20183;-81
2022/04/26 13:44:45;;;;;;;0.37;0.37;;;10.40;99.90;;;;;;4998909;28;20207;-83
2022/04/26 13:47:10;;;;;;;0.30;0.30;;;10.80;99.90;;;;;;5000339;28;20191;-82
2022/04/26 13:49:36;;;;;;;2.00;0.20;;;10.70;99.90;;;;;;4999529;28;20229;-82
2022/04/26 13:52:07;;;;;;;0.23;0.23;;;10.40;99.90;;;;;;5007446;28;20676;-83
2022/04/26 13:54:33;;;;;;;0.17;0.17;;;10.20;99.90;;;;;;4998998;28;20211;-81
2022/04/26 13:56:59;;;;;;;0.10;0.10;;;10.20;99.90;;;;;;5001643;28;20198;-82
2022/04/26 13:59:25;;;;;;;0.30;0.30;;;10.10;99.90;;;;;;5014774;28;20684;-86
2022/04/26 14:01:55;;;;;;;0.20;0.20;;;10.40;99.90;;;;;;4995912;28;20554;-83
2022/04/26 14:04:21;;;;;;;0.37;0.37;;;10.30;99.90;;;;;;5006965;28;20183;-82
2022/04/26 14:06:47;;;;;;;0.13;0.13;;;10.40;99.90;;;;;;5001641;28;20203;-82
2022/04/26 14:09:13;;;;;;;0.30;0.30;;;10.70;99.90;;;;;;5003355;28;20199;-82
2022/04/26 14:11:39;;;;;;;0.13;0.13;;;10.70;99.90;;;;;;5000517;28;20195;-82
2022/04/26 14:22:18;;;;;;;0.10;0.10;;;10.00;99.90;;;;;;5000078;28;20624;-80
2022/04/26 14:24:44;;;;;;;0.20;0.20;;;10.00;99.90;;;;;;5014375;28;20198;-81
2022/04/26 14:27:10;;;;;;;0.40;0.40;;;9.90;99.90;;;;;;5000377;28;20198;-80
2022/04/26 14:29:36;;;;;;;4.13;0.40;;;10.00;99.90;;;;;;5014756;28;20216;-81
2022/04/26 14:32:02;;;;;;;0.30;0.30;;;9.70;99.90;;;;;;5014947;28;20178;-80
2022/04/26 14:34:28;;;;;;;0.20;0.20;;;9.60;99.90;;;;;;5005379;28;20193;-82
2022/04/26 14:36:53;;;;;;;0.23;0.23;;;9.60;99.90;;;;;;5006567;28;20807;-80
2022/04/26 14:39:19;;;;;;;0.70;0.70;;;9.60;99.90;;;;;;4998662;28;20240;-82
2022/04/26 14:41:45;;;;;;;0.50;0.50;;;9.40;99.90;;;;;;4997571;28;20554;-80
2022/04/26 14:44:10;;;;;;;0.40;0.40;;;9.50;99.90;;;;;;4997277;28;20189;-80
2022/04/26 14:46:36;;;;;;;0.37;0.30;;;9.40;99.90;;;;;;5013395;28;20189;-80
2022/04/26 14:49:03;;;;;;;1.00;0.73;;;9.40;99.90;;;;;;5014902;28;20429;-80
2022/04/26 14:51:29;;;;;;;0.23;0.20;;;9.30;99.90;;;;;;5005519;28;20225;-80
2022/04/26 14:53:55;;;;;;;0.40;0.40;;;9.30;99.90;;;;;;5004689;28;20202;-80
2022/04/26 14:56:20;;;;;;;2.87;0.57;;;9.30;99.90;;;;;;5005392;28;20194;-80
2022/04/26 14:58:49;;;;;;;0.30;0.30;;;9.30;99.90;;;;;;5003241;28;20284;-80
2022/04/26 15:01:15;;;;;;;0.53;0.53;;;9.20;99.90;;;;;;5002811;28;20248;-80
2022/04/26 15:03:40;;;;;;;1.00;1.00;;;9.20;99.90;;;;;;4999507;28;20232;-80
2022/04/26 15:06:06;;;;;;;0.53;0.47;;;9.20;99.90;;;;;;5013074;28;20180;-80
2022/04/26 15:11:15;;;;;;;0.20;0.20;;;9.40;99.90;;;;;;4999751;28;20246;-80
2022/04/26 15:16:37;;;;;;;0.27;0.27;;;9.50;99.90;;;;;;4999480;28;20738;-80
2022/04/26 15:19:03;;;;;;;0.80;0.80;;;9.50;99.90;;;;;;5001208;28;22037;-80
2022/04/26 15:21:29;;;;;;;1.30;0.43;;;9.70;99.90;;;;;;5004661;28;20582;-80
2022/04/26 15:23:55;;;;;;;0.30;0.30;;;9.60;99.90;;;;;;5006386;28;20193;-80
2022/04/26 15:26:21;;;;;;;0.30;0.30;;;9.60;99.90;;;;;;5001840;28;20215;-80
2022/04/26 15:28:47;;;;;;;0.47;0.47;;;9.50;99.90;;;;;;4999518;28;20185;-80
2022/04/26 15:31:17;;;;;;;0.63;0.63;;;9.50;99.90;;;;;;5005188;28;20204;-80
2022/04/26 15:33:43;;;;;;;0.73;0.23;;;9.50;99.90;;;;;;5005051;28;20243;-79
2022/04/26 15:36:09;;;;;;;0.60;0.60;;;9.60;99.90;;;;;;4997406;28;20589;-79
2022/04/26 15:38:35;;;;;;;0.40;0.40;;;9.50;99.90;;;;;;5002150;28;20189;-79
2022/04/26 15:41:01;;;;;;;1.40;0.50;;;9.50;99.90;;;;;;4998682;28;20209;-80
2022/04/26 15:43:30;;;;;;;0.37;0.37;;;9.50;99.90;;;;;;5002847;28;20682;-79
2022/04/26 15:45:55;;;;;;;0.50;0.50;;;9.50;99.90;;;;;;5003168;28;20190;-79
2022/04/26 15:48:22;;;;;;;1.30;1.03;;;9.50;99.90;;;;;;5001357;28;20557;-79
2022/04/26 15:50:48;;;;;;;0.20;0.20;;;9.50;99.90;;;;;;4995705;28;20255;-80
2022/04/26 15:53:14;;;;;;;0.47;0.43;;;9.50;99.90;;;;;;5002207;28;20191;-79
2022/04/26 15:55:40;;;;;;;0.20;0.20;;;9.50;99.90;;;;;;4995143;28;21256;-79
2022/04/26 15:58:05;;;;;;;0.40;0.40;;;9.50;99.90;;;;;;5004496;28;20179;-80
2022/04/26 16:00:31;;;;;;;0.77;0.60;;;9.50;99.90;;;;;;4999125;28;20294;-79
2022/04/26 16:02:57;;;;;;;1.10;0.77;;;9.50;99.90;;;;;;4991936;28;20198;-80
2022/04/26 16:05:23;;;;;;;0.43;0.40;;;9.40;99.90;;;;;;5008472;28;20194;-79
2022/04/26 16:07:49;;;;;;;0.63;0.33;;;9.40;99.90;;;;;;4995647;28;20224;-79
2022/04/26 16:21:10;;;;;;;0.40;0.40;;;9.40;99.90;;;;;;5003703;28;20235;-79
2022/04/26 16:23:36;;;;;;;1.23;0.63;;;9.40;99.90;;;;;;5018985;28;20195;-80
2022/04/26 16:26:02;;;;;;;0.30;0.30;;;9.30;99.90;;;;;;4999781;28;20276;-84
2022/04/26 16:28:35;;;;;;;0.10;0.10;;;9.40;99.90;;;;;;5011768;28;20189;-82
2022/04/26 16:31:03;;;;;;;0.50;0.50;;;9.40;99.90;;;;;;5014637;28;20206;-81
2022/04/26 16:33:29;;;;;;;0.40;0.40;;;9.50;99.90;;;;;;5017544;28;20204;-81
2022/04/26 16:35:54;;;;;;;0.30;0.30;;;9.50;99.90;;;;;;5012567;28;20219;-80
2022/04/26 16:38:21;;;;;;;0.47;0.47;;;9.60;99.90;;;;;;5013731;28;20177;-79
2022/04/26 16:40:48;;;;;;;0.20;0.20;;;9.60;99.90;;;;;;5009454;28;20298;-80
2022/04/26 16:43:17;;;;;;;1.07;0.40;;;9.70;99.90;;;;;;5001804;28;20184;-80
2022/04/26 16:45:43;;;;;;;0.67;0.50;;;9.80;99.90;;;;;;5009043;28;20624;-80
2022/04/26 16:48:09;;;;;;;0.20;0.20;;;9.70;99.90;;;;;;5008706;28;20863;-80
2022/04/26 16:50:35;;;;;;;0.40;0.40;;;9.80;99.90;;;;;;5008896;28;20216;-80
2022/04/26 16:53:01;;;;;;;2.00;1.30;;;9.90;99.90;;;;;;4999045;28;20530;-80
2022/04/26 16:55:27;;;;;;;0.40;0.40;;;9.90;99.90;;;;;;5001519;28;20762;-80
2022/04/26 16:57:53;;;;;;;0.97;0.63;;;9.90;99.90;;;;;;5008451;28;20189;-80
2022/04/26 17:00:19;;;;;;;0.27;0.27;;;9.90;99.90;;;;;;5008038;28;20224;-80
2022/04/26 17:02:45;;;;;;;0.70;0.33;;;10.00;99.90;;;;;;5002158;28;20186;-80
2022/04/26 17:05:12;;;;;;;0.50;0.50;;;10.10;99.90;;;;;;5000586;28;20669;-79
2022/04/26 17:07:39;;;;;;;0.40;0.40;;;10.10;99.90;;;;;;5001135;28;20285;-80
2022/04/26 17:10:06;;;;;;;1.80;0.63;;;10.20;99.90;;;;;;5002626;28;20235;-80
2022/04/26 17:12:33;;;;;;;0.50;0.50;;;10.20;99.90;;;;;;4999247;28;20631;-80